Time;durP1;ratioP1;P1;durP2;ratioP2;P2;SDS_P1;SDS_P2;PMS_P1;PMS_P2;Temp;Humidity;BMP_temperature;BMP_pressure;BME280_temperature;BME280_humidity;BME280_pressure;Samples;Min_cycle;Max_cycle;Signal;HPM_P1;HPM_P2
2023/02/14 00:01:48;;;;;;;12.00;7.20;;;;;;;4.72;79.75;101788.49;135103;1254;108170;-74
2023/02/14 00:04:53;;;;;;;12.20;7.10;;;;;;;4.66;79.88;101787.57;135084;1254;107547;-74
2023/02/14 00:07:59;;;;;;;13.30;8.20;;;;;;;4.62;79.96;101792.16;135031;1254;107531;-74
2023/02/14 00:11:05;;;;;;;13.80;7.50;;;;;;;4.59;80.08;101785.27;135053;1254;106779;-74
2023/02/14 00:17:34;;;;;;;11.90;7.30;;;;;;;4.58;79.96;101787.09;135062;1254;107522;-75
2023/02/14 00:20:40;;;;;;;11.80;7.30;;;;;;;4.53;80.30;101797.02;135036;1254;107368;-74
2023/02/14 00:23:45;;;;;;;11.70;6.70;;;;;;;4.49;80.22;101797.36;135084;1254;107567;-74
2023/02/14 00:26:52;;;;;;;12.30;6.60;;;;;;;4.52;80.34;101797.73;135058;1254;107542;-75
2023/02/14 00:30:00;;;;;;;11.50;6.60;;;;;;;4.55;80.19;101802.91;135054;1254;107556;-74
2023/02/14 00:33:06;;;;;;;10.90;7.20;;;;;;;4.56;80.27;101799.52;134991;1254;106336;-74
2023/02/14 00:36:12;;;;;;;12.00;6.50;;;;;;;4.51;80.33;101796.77;134922;1254;107550;-74
2023/02/14 00:39:19;;;;;;;14.00;7.10;;;;;;;4.48;80.48;101796.55;135078;1254;108640;-74
2023/02/14 00:42:25;;;;;;;12.20;6.90;;;;;;;4.46;80.67;101799.27;135036;1254;107624;-74
2023/02/14 00:45:30;;;;;;;11.60;6.30;;;;;;;4.43;80.62;101805.23;134942;1254;109333;-74
2023/02/14 00:48:36;;;;;;;11.10;6.90;;;;;;;4.41;80.78;101795.31;135041;1254;107482;-74
2023/02/14 00:51:42;;;;;;;10.40;6.80;;;;;;;4.40;80.89;101790.25;134950;1254;108677;-74
2023/02/14 00:54:47;;;;;;;12.70;7.20;;;;;;;4.38;80.95;101783.66;135083;1254;107535;-75
2023/02/14 00:57:53;;;;;;;16.40;7.00;;;;;;;4.38;80.81;101780.48;135070;1254;107032;-74
2023/02/14 01:01:00;;;;;;;12.10;6.60;;;;;;;4.35;80.99;101782.92;135074;1255;105986;-74
2023/02/14 01:04:06;;;;;;;13.70;6.30;;;;;;;4.35;81.13;101782.55;134979;1256;106272;-74
2023/02/14 01:07:11;;;;;;;12.10;6.40;;;;;;;4.36;81.04;101790.30;134980;1254;107452;-74
2023/02/14 01:10:17;;;;;;;11.40;7.20;;;;;;;4.33;81.37;101779.12;135029;1256;107253;-75
2023/02/14 01:13:23;;;;;;;12.80;7.50;;;;;;;4.29;81.43;101781.80;135033;1254;107213;-74
2023/02/14 01:16:29;;;;;;;12.20;7.10;;;;;;;4.26;81.48;101777.38;135078;1254;107953;-74
2023/02/14 01:19:35;;;;;;;10.60;6.00;;;;;;;4.22;81.78;101785.34;135027;1254;107548;-74
2023/02/14 01:22:41;;;;;;;16.30;7.90;;;;;;;4.18;81.91;101788.34;135008;1255;107217;-74
2023/02/14 01:25:46;;;;;;;11.60;7.00;;;;;;;4.20;81.80;101788.56;135047;1254;106387;-74
2023/02/14 01:28:52;;;;;;;11.60;7.60;;;;;;;4.21;81.72;101790.46;135097;1254;107402;-75
2023/02/14 01:31:58;;;;;;;12.70;6.50;;;;;;;4.23;81.89;101795.85;135056;1254;107747;-74
2023/02/14 01:35:04;;;;;;;11.30;6.70;;;;;;;4.20;81.88;101802.51;135034;1254;107503;-74
2023/02/14 01:38:09;;;;;;;13.70;6.60;;;;;;;4.16;82.21;101797.22;134973;1256;107428;-74
2023/02/14 01:41:15;;;;;;;12.00;6.90;;;;;;;4.13;82.30;101793.33;135060;1254;107528;-74
2023/02/14 01:44:57;;;;;;;13.00;7.20;;;;;;;4.10;82.43;101794.14;135063;1254;106806;-75
2023/02/14 01:48:03;;;;;;;13.00;6.40;;;;;;;4.08;82.45;101792.13;135094;1254;107409;-74
2023/02/14 01:51:09;;;;;;;10.80;6.20;;;;;;;4.07;82.58;101793.61;135016;1254;107237;-74
2023/02/14 01:54:17;;;;;;;12.40;7.40;;;;;;;4.01;83.02;101793.34;134971;1254;106718;-74
2023/02/14 01:57:26;;;;;;;15.30;7.80;;;;;;;4.01;82.88;101783.86;135059;1254;107384;-74
2023/02/14 02:03:59;;;;;;;13.70;7.60;;;;;;;3.90;83.53;101785.59;135060;1255;106783;-74
2023/02/14 02:07:07;;;;;;;12.00;7.00;;;;;;;3.84;83.78;101783.60;135029;1254;107224;-74
2023/02/14 02:10:13;;;;;;;12.80;7.50;;;;;;;3.81;84.05;101783.23;135029;1255;107645;-74
2023/02/14 02:13:20;;;;;;;13.00;7.50;;;;;;;3.81;83.81;101781.96;135040;1254;107624;-73
2023/02/14 02:16:45;;;;;;;14.20;8.20;;;;;;;3.82;83.92;101786.16;134978;1254;107899;-74
2023/02/14 02:20:25;;;;;;;20.20;8.40;;;;;;;3.76;84.22;101783.80;134900;1254;107467;-74
2023/02/14 02:24:09;;;;;;;13.00;8.10;;;;;;;3.76;84.08;101786.96;135059;1254;107594;-74
2023/02/14 02:27:24;;;;;;;15.20;8.60;;;;;;;3.73;84.35;101789.56;134769;1254;107452;-73
2023/02/14 02:30:58;;;;;;;14.70;8.50;;;;;;;3.73;84.65;101793.11;135043;1258;108592;-74
2023/02/14 02:34:33;;;;;;;13.40;7.70;;;;;;;3.69;84.49;101794.31;135022;1254;108112;-74
2023/02/14 02:37:46;;;;;;;13.90;7.70;;;;;;;3.66;85.22;101796.08;135082;1254;105918;-74
2023/02/14 02:41:02;;;;;;;18.80;9.10;;;;;;;3.63;85.42;101801.83;135038;1254;107677;-74
2023/02/14 02:44:15;;;;;;;16.80;9.00;;;;;;;3.65;85.00;101802.27;135082;1254;107522;-74
2023/02/14 02:47:27;;;;;;;16.00;8.50;;;;;;;3.67;85.03;101806.57;135015;1255;108638;-74
2023/02/14 02:54:09;;;;;;;15.00;8.10;;;;;;;3.64;85.48;101813.40;134991;1254;107425;-74
2023/02/14 02:57:21;;;;;;;16.80;8.80;;;;;;;3.59;85.84;101815.39;134950;1255;107634;-74
2023/02/14 03:00:27;;;;;;;16.10;9.00;;;;;;;3.59;85.52;101808.52;134961;1254;107379;-74
2023/02/14 03:07:00;;;;;;;14.90;9.10;;;;;;;3.51;85.98;101815.02;134983;1254;107682;-74
2023/02/14 03:10:12;;;;;;;17.60;9.20;;;;;;;3.50;86.04;101812.95;134971;1254;108429;-74
2023/02/14 03:13:40;;;;;;;12.90;8.60;;;;;;;3.49;86.29;101816.88;134979;1254;107516;-75
2023/02/14 03:16:59;;;;;;;15.40;9.50;;;;;;;3.45;86.56;101821.42;134950;1254;107667;-74
2023/02/14 03:20:14;;;;;;;16.20;8.50;;;;;;;3.43;86.64;101826.12;135034;1254;107533;-73
2023/02/14 03:23:25;;;;;;;18.20;10.10;;;;;;;3.41;86.72;101827.95;135043;1254;107436;-74
2023/02/14 03:26:39;;;;;;;18.20;10.10;;;;;;;3.41;86.80;101833.94;134952;1254;107508;-74
2023/02/14 03:29:57;;;;;;;16.30;9.20;;;;;;;3.36;87.14;101833.29;134895;1254;108534;-74
2023/02/14 03:33:06;;;;;;;14.70;8.90;;;;;;;3.31;87.27;101834.36;135065;1254;105787;-74
2023/02/14 03:36:17;;;;;;;13.60;9.30;;;;;;;3.30;87.19;101838.10;135086;1254;106762;-74
2023/02/14 03:39:27;;;;;;;17.80;10.40;;;;;;;3.33;87.36;101842.05;134944;1254;113246;-74
2023/02/14 03:42:37;;;;;;;17.40;10.00;;;;;;;3.31;87.65;101840.38;135002;1254;107409;-74
2023/02/14 03:45:46;;;;;;;14.90;9.20;;;;;;;3.32;86.84;101837.31;134923;1254;107440;-76
2023/02/14 03:48:53;;;;;;;15.40;9.70;;;;;;;3.30;87.76;101842.70;135044;1254;107500;-76
2023/02/14 03:52:02;;;;;;;19.30;9.70;;;;;;;3.29;87.78;101838.85;135041;1254;107503;-76
2023/02/14 03:55:09;;;;;;;16.10;10.10;;;;;;;3.25;87.88;101834.48;135057;1254;107167;-72
2023/02/14 03:58:21;;;;;;;18.20;10.40;;;;;;;3.22;87.84;101834.27;135010;1254;107640;-71
2023/02/14 04:01:32;;;;;;;18.80;10.60;;;;;;;3.17;88.15;101836.07;134944;1254;107545;-71
2023/02/14 04:04:43;;;;;;;18.40;9.80;;;;;;;3.21;87.77;101838.19;134906;1254;105469;-71
2023/02/14 04:07:51;;;;;;;18.80;10.90;;;;;;;3.25;88.06;101846.77;135072;1254;107543;-72
2023/02/14 04:11:00;;;;;;;19.10;11.70;;;;;;;3.24;87.85;101842.41;135089;1254;107440;-71
2023/02/14 04:14:06;;;;;;;19.50;10.40;;;;;;;3.22;88.03;101833.89;135051;1254;107488;-71
2023/02/14 04:20:35;;;;;;;17.40;11.30;;;;;;;3.23;88.03;101836.14;135078;1254;107381;-71
2023/02/14 04:23:41;;;;;;;17.30;10.50;;;;;;;3.25;87.94;101837.29;135090;1254;108694;-71
2023/02/14 04:27:09;;;;;;;16.50;10.80;;;;;;;3.25;87.78;101839.55;135067;1254;107635;-71
2023/02/14 04:30:16;;;;;;;18.20;10.30;;;;;;;3.22;87.88;101833.40;135044;1254;107502;-71
2023/02/14 04:33:22;;;;;;;20.40;11.40;;;;;;;3.14;88.32;101831.75;135085;1254;106793;-71
2023/02/14 04:36:27;;;;;;;16.60;10.80;;;;;;;3.11;88.42;101835.24;135103;1254;107395;-71
2023/02/14 04:39:34;;;;;;;19.20;11.10;;;;;;;3.11;88.33;101832.77;135083;1254;107572;-71
2023/02/14 04:42:39;;;;;;;19.50;11.40;;;;;;;3.10;88.57;101832.66;135101;1254;107219;-71
2023/02/14 04:45:45;;;;;;;15.90;10.30;;;;;;;3.04;88.75;101832.58;135016;1254;107259;-71
2023/02/14 04:48:50;;;;;;;19.00;10.50;;;;;;;3.03;88.58;101836.66;135121;1254;107639;-71
2023/02/14 04:51:56;;;;;;;17.90;11.10;;;;;;;3.01;88.98;101845.17;135036;1254;107539;-71
2023/02/14 04:55:03;;;;;;;20.10;13.00;;;;;;;3.02;88.68;101840.22;135085;1254;107581;-71
2023/02/14 04:58:08;;;;;;;19.00;11.60;;;;;;;3.06;88.58;101845.67;135038;1254;107487;-71
2023/02/14 05:01:14;;;;;;;17.90;11.50;;;;;;;3.08;88.50;101854.02;135083;1254;107547;-71
2023/02/14 05:04:20;;;;;;;18.70;11.70;;;;;;;3.03;88.96;101855.63;135033;1254;107537;-71
2023/02/14 05:07:25;;;;;;;18.60;10.10;;;;;;;3.03;88.61;101860.57;135078;1254;107479;-71
2023/02/14 05:10:31;;;;;;;17.60;11.70;;;;;;;3.04;88.98;101863.86;135102;1254;107508;-71
2023/02/14 05:13:36;;;;;;;21.40;12.20;;;;;;;3.02;89.09;101866.40;135093;1254;107519;-71
2023/02/14 05:16:42;;;;;;;19.20;11.40;;;;;;;2.96;89.39;101870.18;135034;1254;107297;-71
2023/02/14 05:19:47;;;;;;;16.60;11.20;;;;;;;2.90;89.35;101873.05;135025;1254;108646;-71
2023/02/14 05:22:53;;;;;;;17.90;12.00;;;;;;;2.90;89.25;101874.12;135119;1254;107591;-71
2023/02/14 05:25:59;;;;;;;19.00;12.30;;;;;;;2.90;89.39;101870.41;135047;1254;107556;-71
2023/02/14 05:29:04;;;;;;;20.10;13.00;;;;;;;2.90;89.47;101873.07;135110;1254;107528;-71
2023/02/14 05:32:10;;;;;;;21.80;12.30;;;;;;;2.88;89.23;101872.42;135055;1254;108751;-71
2023/02/14 05:35:15;;;;;;;23.80;14.10;;;;;;;2.88;89.19;101870.70;135034;1254;107533;-71
2023/02/14 05:38:21;;;;;;;19.60;12.60;;;;;;;2.91;89.32;101875.29;135080;1254;107512;-71
2023/02/14 05:41:26;;;;;;;20.70;13.40;;;;;;;2.95;89.56;101870.55;135043;1254;107222;-71
2023/02/14 05:44:32;;;;;;;22.70;15.00;;;;;;;2.94;89.36;101869.90;135062;1254;107892;-71
2023/02/14 05:47:38;;;;;;;22.60;13.40;;;;;;;2.95;89.42;101884.95;135070;1254;109408;-71
2023/02/14 05:50:44;;;;;;;21.60;13.50;;;;;;;2.92;89.37;101877.73;135012;1254;107818;-72
2023/02/14 05:53:49;;;;;;;21.00;13.20;;;;;;;2.90;89.72;101881.86;135068;1254;107242;-71
2023/02/14 05:56:55;;;;;;;20.90;12.90;;;;;;;2.87;89.76;101881.60;135050;1254;107396;-72
2023/02/14 06:00:00;;;;;;;19.90;12.90;;;;;;;2.86;90.16;101896.77;135072;1254;107440;-70
2023/02/14 06:03:06;;;;;;;21.50;13.30;;;;;;;2.86;89.84;101902.05;135043;1254;107593;-71
2023/02/14 06:06:11;;;;;;;22.00;12.50;;;;;;;2.84;90.25;101902.67;135072;1254;108890;-71
2023/02/14 06:09:18;;;;;;;20.80;13.30;;;;;;;2.81;90.13;101904.53;135069;1254;107403;-71
2023/02/14 06:12:24;;;;;;;20.20;11.80;;;;;;;2.81;90.10;101902.42;135029;1254;107505;-71
2023/02/14 06:15:29;;;;;;;24.90;13.50;;;;;;;2.89;89.90;101904.89;135110;1254;105582;-71
2023/02/14 06:18:35;;;;;;;22.50;14.30;;;;;;;2.96;89.86;101902.70;135075;1254;107508;-72
2023/02/14 06:21:40;;;;;;;22.60;13.80;;;;;;;3.03;89.85;101907.34;135083;1254;107242;-71
2023/02/14 06:24:46;;;;;;;22.30;14.50;;;;;;;3.02;89.60;101911.05;135073;1254;107378;-72
2023/02/14 06:27:55;;;;;;;24.40;13.00;;;;;;;2.97;89.86;101915.84;135056;1254;107562;-71
2023/02/14 06:31:00;;;;;;;24.10;13.80;;;;;;;2.88;90.16;101920.79;135062;1254;107548;-71
2023/02/14 06:34:06;;;;;;;23.80;13.40;;;;;;;2.84;90.09;101915.66;135021;1254;107514;-71
2023/02/14 06:37:11;;;;;;;24.80;14.00;;;;;;;2.89;89.96;101919.16;135077;1254;107486;-71
2023/02/14 06:40:18;;;;;;;21.90;14.40;;;;;;;2.94;90.09;101920.70;135068;1254;107454;-71
2023/02/14 06:43:23;;;;;;;25.80;15.90;;;;;;;2.90;90.52;101916.63;135087;1254;107612;-71
2023/02/14 06:46:29;;;;;;;25.00;13.40;;;;;;;2.79;90.55;101917.61;135078;1254;107754;-71
2023/02/14 06:49:35;;;;;;;23.50;14.70;;;;;;;2.76;90.43;101919.67;135081;1254;107736;-71
2023/02/14 06:52:40;;;;;;;23.00;13.70;;;;;;;2.82;90.19;101920.84;135074;1254;108691;-71
2023/02/14 06:55:46;;;;;;;23.00;14.60;;;;;;;2.88;90.31;101921.64;135045;1254;107379;-71
2023/02/14 06:58:52;;;;;;;22.50;14.30;;;;;;;2.98;89.88;101937.42;135055;1254;107483;-71
2023/02/14 07:01:57;;;;;;;23.90;14.80;;;;;;;3.05;89.71;101933.44;135072;1254;107398;-71
2023/02/14 07:05:03;;;;;;;24.30;14.70;;;;;;;3.09;89.63;101929.23;135064;1254;107428;-71
2023/02/14 07:08:09;;;;;;;20.60;12.90;;;;;;;3.07;89.51;101932.65;135022;1254;107495;-71
2023/02/14 07:11:14;;;;;;;22.30;14.60;;;;;;;3.04;89.52;101941.39;135059;1254;108495;-71
2023/02/14 07:14:20;;;;;;;24.60;14.40;;;;;;;2.97;90.03;101937.10;135100;1254;107593;-71
2023/02/14 07:17:25;;;;;;;23.10;14.30;;;;;;;2.86;90.08;101933.14;135124;1254;107622;-71
2023/02/14 07:20:31;;;;;;;22.90;13.10;;;;;;;2.79;90.30;101936.79;135086;1254;107490;-71
2023/02/14 07:23:36;;;;;;;26.10;15.20;;;;;;;2.76;90.11;101935.33;135056;1254;107444;-71
2023/02/14 07:26:42;;;;;;;27.30;15.10;;;;;;;2.81;90.47;101933.89;135066;1254;107547;-71
2023/02/14 07:29:47;;;;;;;24.60;14.60;;;;;;;2.82;90.72;101940.01;135107;1254;107515;-71
2023/02/14 07:32:53;;;;;;;21.60;13.10;;;;;;;2.84;90.21;101947.45;135044;1254;108656;-71
2023/02/14 07:35:58;;;;;;;22.50;14.20;;;;;;;2.89;90.59;101952.88;135070;1254;106826;-72
2023/02/14 07:39:04;;;;;;;34.60;18.20;;;;;;;2.86;90.48;101949.34;135062;1254;106547;-71
2023/02/14 07:42:10;;;;;;;25.40;14.20;;;;;;;2.86;90.53;101951.98;135037;1254;107456;-71
2023/02/14 07:45:16;;;;;;;23.00;13.00;;;;;;;2.84;90.90;101949.77;134862;1254;107463;-71
2023/02/14 07:48:22;;;;;;;25.10;15.30;;;;;;;2.89;90.93;101950.60;135063;1254;106630;-71
2023/02/14 07:51:27;;;;;;;25.50;14.40;;;;;;;2.93;90.84;101952.91;135055;1254;107436;-71
2023/02/14 07:54:33;;;;;;;104.20;43.30;;;;;;;2.97;90.53;101953.46;135037;1254;107423;-71
2023/02/14 07:57:38;;;;;;;30.30;15.30;;;;;;;3.02;90.78;101955.19;135084;1254;107677;-71
2023/02/14 08:00:45;;;;;;;28.10;16.10;;;;;;;3.03;90.40;101959.55;135063;1254;107315;-71
2023/02/14 08:03:51;;;;;;;29.80;17.50;;;;;;;3.08;90.48;101965.11;135073;1254;107529;-71
2023/02/14 08:06:57;;;;;;;29.00;17.40;;;;;;;3.18;90.43;101965.63;135066;1254;107647;-72
2023/02/14 08:10:02;;;;;;;23.00;13.80;;;;;;;3.20;90.26;101963.95;135030;1254;107515;-71
2023/02/14 08:13:08;;;;;;;24.50;13.50;;;;;;;3.24;90.07;101965.55;135087;1254;107384;-71
2023/02/14 08:16:13;;;;;;;119.30;50.10;;;;;;;3.19;90.17;101969.95;135062;1254;107539;-71
2023/02/14 08:19:19;;;;;;;47.70;29.10;;;;;;;3.12;90.07;101965.33;135053;1254;107564;-72
2023/02/14 08:22:24;;;;;;;24.40;14.60;;;;;;;3.16;90.23;101967.95;135050;1254;107515;-71
2023/02/14 08:25:30;;;;;;;21.90;13.40;;;;;;;3.27;90.22;101969.80;135065;1254;107607;-72
2023/02/14 08:28:36;;;;;;;19.60;12.50;;;;;;;3.34;89.92;101968.28;135028;1254;107438;-71
2023/02/14 08:31:41;;;;;;;73.50;39.60;;;;;;;3.34;89.92;101966.52;135099;1254;107500;-71
2023/02/14 08:34:47;;;;;;;22.60;14.40;;;;;;;3.33;89.85;101981.86;135029;1254;107405;-71
2023/02/14 08:37:53;;;;;;;35.90;17.20;;;;;;;3.26;90.03;101979.71;135078;1254;108182;-71
2023/02/14 08:41:02;;;;;;;22.60;13.30;;;;;;;3.20;90.54;101981.35;135033;1254;107615;-73
2023/02/14 08:44:07;;;;;;;21.10;13.20;;;;;;;3.15;90.61;101986.80;135050;1254;107536;-71
2023/02/14 08:47:13;;;;;;;20.10;12.90;;;;;;;3.16;90.77;101990.31;135064;1254;107500;-71
2023/02/14 08:50:19;;;;;;;22.20;13.80;;;;;;;3.08;90.70;101986.41;135063;1254;106706;-71
2023/02/14 08:53:24;;;;;;;71.20;27.50;;;;;;;3.11;90.71;101988.92;135138;1254;108673;-71
2023/02/14 08:56:30;;;;;;;168.10;50.80;;;;;;;3.15;90.71;101991.77;135046;1254;108705;-72
2023/02/14 08:59:35;;;;;;;23.20;12.60;;;;;;;3.19;90.66;101991.27;135068;1254;107507;-71
2023/02/14 09:02:41;;;;;;;25.60;14.50;;;;;;;3.15;90.68;101992.81;135099;1254;107308;-71
2023/02/14 09:05:46;;;;;;;36.00;19.60;;;;;;;3.16;90.80;101990.64;135070;1254;107324;-71
2023/02/14 09:08:53;;;;;;;32.10;17.50;;;;;;;3.30;90.62;101985.16;135080;1254;107372;-71
2023/02/14 09:12:03;;;;;;;42.50;20.10;;;;;;;3.33;90.40;101988.05;135049;1254;107272;-71
2023/02/14 09:15:09;;;;;;;26.00;15.00;;;;;;;3.25;90.89;101998.92;135033;1254;107499;-71
2023/02/14 09:18:15;;;;;;;25.70;15.10;;;;;;;3.21;90.73;101996.45;135086;1254;107642;-71
2023/02/14 09:21:24;;;;;;;207.60;55.80;;;;;;;3.23;90.84;101996.19;135075;1254;107511;-71
2023/02/14 09:24:30;;;;;;;31.40;17.20;;;;;;;3.32;90.91;102002.13;135068;1254;107504;-71
2023/02/14 09:27:36;;;;;;;40.90;19.10;;;;;;;3.36;90.87;102004.96;135058;1254;107497;-71
2023/02/14 09:30:41;;;;;;;27.60;15.40;;;;;;;3.35;90.65;102007.30;135068;1254;107542;-71
2023/02/14 09:40:37;;;;;;;25.10;15.90;;;;;;;3.29;90.77;102007.53;135074;1254;107484;-72
2023/02/14 09:43:48;;;;;;;32.30;17.30;;;;;;;3.28;90.93;102017.26;135052;1254;107541;-71
2023/02/14 09:46:59;;;;;;;73.00;29.40;;;;;;;3.29;90.87;102016.69;135032;1254;107517;-71
2023/02/14 09:50:15;;;;;;;28.30;14.90;;;;;;;3.28;90.86;102021.98;135063;1254;107884;-71
2023/02/14 09:53:26;;;;;;;26.90;15.10;;;;;;;3.38;90.94;102024.07;135071;1254;107504;-71
2023/02/14 09:56:42;;;;;;;29.80;17.30;;;;;;;3.44;90.79;102024.67;135069;1254;107844;-71
2023/02/14 09:59:53;;;;;;;30.20;17.40;;;;;;;3.44;90.64;102020.79;135077;1254;107363;-71
2023/02/14 10:03:12;;;;;;;47.90;25.70;;;;;;;3.49;90.84;102020.42;135074;1254;107545;-71
2023/02/14 10:06:32;;;;;;;30.60;17.00;;;;;;;3.56;90.65;102019.95;135083;1254;107558;-71
2023/02/14 10:09:50;;;;;;;98.80;45.40;;;;;;;3.60;90.50;102022.61;135029;1254;107629;-71
2023/02/14 10:13:01;;;;;;;26.90;16.40;;;;;;;3.67;90.35;102018.28;135071;1254;107451;-71
2023/02/14 10:16:22;;;;;;;45.60;30.00;;;;;;;3.62;90.38;102017.61;135051;1254;107551;-71
2023/02/14 10:19:31;;;;;;;31.40;20.60;;;;;;;3.60;90.48;102015.24;135027;1254;107524;-71
2023/02/14 10:22:43;;;;;;;28.00;15.30;;;;;;;3.65;90.32;102017.49;135088;1254;107140;-71
2023/02/14 10:25:56;;;;;;;29.00;20.00;;;;;;;3.64;89.97;102009.23;135035;1254;106496;-71
2023/02/14 10:29:03;;;;;;;19.80;12.30;;;;;;;3.76;89.87;102005.94;135068;1254;107349;-71
2023/02/14 10:32:15;;;;;;;22.30;13.80;;;;;;;3.79;89.16;102007.73;135067;1254;109645;-71
2023/02/14 10:35:31;;;;;;;23.00;13.90;;;;;;;3.80;89.04;102004.67;135049;1254;107424;-71
2023/02/14 10:38:44;;;;;;;25.90;15.70;;;;;;;3.81;89.33;102003.08;135109;1254;107555;-71
2023/02/14 10:41:56;;;;;;;30.00;17.60;;;;;;;3.83;89.12;102002.25;135086;1254;107637;-71
2023/02/14 10:45:12;;;;;;;28.10;15.70;;;;;;;3.86;89.54;101994.75;135030;1254;107565;-71
2023/02/14 10:48:27;;;;;;;27.40;15.20;;;;;;;3.95;89.31;102002.64;135064;1254;107491;-71
2023/02/14 10:51:39;;;;;;;25.20;14.90;;;;;;;3.95;89.02;102003.89;135080;1254;107388;-71
2023/02/14 10:54:52;;;;;;;24.70;15.70;;;;;;;3.96;88.52;102000.67;135050;1254;108819;-71
2023/02/14 10:57:58;;;;;;;29.80;18.70;;;;;;;3.91;88.36;101998.59;135083;1254;108666;-71
2023/02/14 11:01:08;;;;;;;41.70;25.40;;;;;;;3.84;88.60;101993.44;135091;1254;107486;-71
2023/02/14 11:04:15;;;;;;;38.20;19.90;;;;;;;3.79;88.64;101989.77;135062;1254;107625;-71
2023/02/14 11:07:22;;;;;;;28.70;16.80;;;;;;;3.78;89.03;101994.92;135039;1254;107617;-71
2023/02/14 11:10:31;;;;;;;26.30;15.90;;;;;;;3.85;89.50;101992.30;135079;1254;107564;-71
2023/02/14 11:13:39;;;;;;;77.30;33.40;;;;;;;4.07;89.33;101982.05;135061;1254;107513;-71
2023/02/14 11:16:44;;;;;;;45.40;21.30;;;;;;;4.20;88.91;101991.14;135083;1254;107513;-72
2023/02/14 11:20:00;;;;;;;37.00;20.50;;;;;;;4.23;88.54;101983.77;135112;1254;108656;-71
2023/02/14 11:23:19;;;;;;;48.10;23.30;;;;;;;4.23;88.13;101984.85;135055;1254;106637;-71
2023/02/14 11:26:30;;;;;;;28.80;16.60;;;;;;;4.12;87.82;101981.80;135013;1254;106739;-71
2023/02/14 11:29:43;;;;;;;30.10;15.70;;;;;;;4.08;88.18;101974.44;135059;1254;107307;-71
2023/02/14 11:32:54;;;;;;;28.60;15.90;;;;;;;4.14;88.36;101973.27;135052;1254;107370;-71
2023/02/14 11:36:02;;;;;;;86.00;31.90;;;;;;;4.19;88.40;101974.78;135080;1254;106394;-71
2023/02/14 11:39:23;;;;;;;525.20;170.40;;;;;;;4.28;88.07;101977.55;135088;1254;107585;-71
2023/02/14 11:42:40;;;;;;;72.60;26.50;;;;;;;4.34;88.05;101977.64;135034;1254;106593;-71
2023/02/14 11:45:48;;;;;;;37.40;19.10;;;;;;;4.31;87.53;101972.85;135083;1254;107933;-71
2023/02/14 11:49:01;;;;;;;28.50;15.80;;;;;;;4.26;87.79;101970.77;135058;1254;107554;-72
2023/02/14 11:52:16;;;;;;;207.50;66.30;;;;;;;4.30;87.98;101969.17;135065;1254;107364;-71
2023/02/14 11:55:28;;;;;;;63.80;25.20;;;;;;;4.28;87.15;101970.14;135044;1254;107285;-71
2023/02/14 11:58:37;;;;;;;43.00;20.50;;;;;;;4.30;87.51;101966.71;135110;1254;107535;-71
2023/02/14 12:01:47;;;;;;;65.40;26.30;;;;;;;4.34;87.58;101970.07;135125;1254;107225;-71
2023/02/14 12:04:55;;;;;;;89.10;31.90;;;;;;;4.39;87.56;101970.89;135057;1254;107521;-71
2023/02/14 12:08:03;;;;;;;83.90;29.60;;;;;;;4.42;87.34;101966.38;135045;1254;107268;-71
2023/02/14 12:11:20;;;;;;;114.80;36.50;;;;;;;4.36;87.37;101968.73;135038;1254;107515;-71
2023/02/14 12:14:29;;;;;;;56.80;22.80;;;;;;;4.29;87.10;101972.73;135025;1254;107538;-71
2023/02/14 12:17:39;;;;;;;127.20;42.50;;;;;;;4.32;87.86;101962.95;135058;1254;108728;-71
2023/02/14 12:20:52;;;;;;;127.90;45.70;;;;;;;4.46;88.06;101965.09;135082;1254;107547;-71
2023/02/14 12:24:05;;;;;;;154.50;64.20;;;;;;;4.57;87.59;101961.97;135081;1254;107546;-71
2023/02/14 12:27:23;;;;;;;45.40;23.00;;;;;;;4.61;87.36;101958.06;135078;1254;107563;-71
2023/02/14 12:30:31;;;;;;;33.30;20.70;;;;;;;4.58;86.72;101960.00;135053;1254;107546;-71
2023/02/14 12:33:38;;;;;;;24.30;14.00;;;;;;;4.56;86.65;101962.71;135059;1254;108580;-71
2023/02/14 12:37:03;;;;;;;23.20;14.30;;;;;;;4.49;86.57;101959.17;135012;1254;108794;-71
2023/02/14 12:40:20;;;;;;;26.10;15.70;;;;;;;4.38;86.60;101955.44;135074;1255;106705;-71
2023/02/14 12:43:42;;;;;;;25.20;15.20;;;;;;;4.35;86.65;101951.71;135042;1254;107579;-71
2023/02/14 12:47:01;;;;;;;23.20;14.90;;;;;;;4.41;86.40;101951.09;135064;1254;107506;-71
2023/02/14 12:50:26;;;;;;;23.00;14.50;;;;;;;4.45;86.22;101949.30;135099;1254;107548;-71
2023/02/14 12:53:42;;;;;;;25.40;16.50;;;;;;;4.49;86.43;101949.80;135055;1254;107499;-71
2023/02/14 12:56:58;;;;;;;25.10;14.80;;;;;;;4.53;86.28;101942.92;135112;1254;107490;-71
2023/02/14 13:00:21;;;;;;;22.30;14.00;;;;;;;4.52;86.27;101939.63;135035;1255;107539;-71
2023/02/14 13:03:51;;;;;;;22.20;13.90;;;;;;;4.60;86.36;101939.62;135063;1254;107547;-71
2023/02/14 13:07:05;;;;;;;23.20;15.40;;;;;;;4.61;85.46;101937.98;135023;1254;106596;-71
2023/02/14 13:10:23;;;;;;;23.90;16.00;;;;;;;4.61;85.66;101934.79;135100;1254;107244;-72
2023/02/14 13:13:39;;;;;;;27.10;16.70;;;;;;;4.59;85.70;101934.02;134904;1254;107346;-71
2023/02/14 13:16:53;;;;;;;24.30;15.20;;;;;;;4.53;85.41;101939.75;135038;1254;107528;-71
2023/02/14 13:20:05;;;;;;;23.30;14.80;;;;;;;4.48;85.45;101937.15;135047;1254;107208;-72
2023/02/14 13:23:16;;;;;;;25.10;16.40;;;;;;;4.46;85.95;101938.87;135064;1254;107553;-71
2023/02/14 13:26:25;;;;;;;24.10;16.80;;;;;;;4.50;86.17;101944.11;135088;1254;107477;-71
2023/02/14 13:29:40;;;;;;;26.00;16.90;;;;;;;4.54;85.93;101943.58;135079;1254;107499;-71
2023/02/14 13:32:48;;;;;;;25.70;16.80;;;;;;;4.50;85.72;101937.42;135080;1254;109338;-71
2023/02/14 13:35:57;;;;;;;27.80;16.60;;;;;;;4.52;86.27;101937.52;135010;1254;107506;-71
2023/02/14 13:39:05;;;;;;;24.10;15.50;;;;;;;4.64;86.59;101935.52;135041;1254;106701;-71
2023/02/14 13:42:11;;;;;;;22.10;15.40;;;;;;;4.80;86.43;101943.77;135063;1254;108668;-72
2023/02/14 13:49:00;;;;;;;23.80;15.60;;;;;;;4.76;84.85;101938.33;127047;1294;636674;-73
2023/02/14 13:52:07;;;;;;;22.90;15.70;;;;;;;4.73;85.54;101932.14;130122;1263;108437;-73
2023/02/14 13:55:19;;;;;;;24.30;15.60;;;;;;;4.73;85.74;101928.08;130145;1283;107633;-72
2023/02/14 13:58:25;;;;;;;22.20;13.90;;;;;;;4.77;85.61;101932.61;130158;1260;107435;-72
2023/02/14 14:01:35;;;;;;;19.40;12.50;;;;;;;4.72;85.29;101934.25;130115;1257;158423;-73
2023/02/14 14:04:41;;;;;;;21.90;14.40;;;;;;;4.74;85.89;101933.48;130435;1263;108633;-72
2023/02/14 14:07:47;;;;;;;21.00;14.70;;;;;;;4.79;85.53;101936.75;130435;1263;107506;-71
2023/02/14 14:10:55;;;;;;;22.60;14.10;;;;;;;4.83;85.51;101937.78;130425;1257;107467;-72
2023/02/14 14:14:02;;;;;;;22.60;15.30;;;;;;;4.81;85.00;101934.55;130469;1281;107562;-70
2023/02/14 14:17:24;;;;;;;22.60;15.10;;;;;;;4.73;85.14;101934.20;130394;1281;107494;-70
2023/02/14 14:20:43;;;;;;;41.90;27.10;;;;;;;4.75;85.56;101933.10;130450;1262;107489;-72
2023/02/14 14:24:18;;;;;;;21.80;15.00;;;;;;;4.71;85.22;101933.41;130410;1263;107540;-72
2023/02/14 14:27:28;;;;;;;40.60;20.60;;;;;;;4.58;85.14;101934.77;130403;1262;106526;-72
2023/02/14 14:30:34;;;;;;;32.20;19.40;;;;;;;4.60;85.61;101933.09;130450;1258;107538;-72
2023/02/14 14:33:40;;;;;;;665.90;246.60;;;;;;;4.66;85.47;101936.66;130986;1256;107512;-72
2023/02/14 14:36:46;;;;;;;137.70;54.30;;;;;;;4.68;84.90;101931.98;131059;1257;107212;-72
2023/02/14 14:39:56;;;;;;;101.30;43.70;;;;;;;4.64;85.23;101930.43;131306;1254;107327;-72